This is the latest recevied weather packets stored in our database for station/object KG4GJX. If no packets are shown the sender has not sent any weather packets the latest 1 day(s).
| Time | Temp. | Humidity | Pressure | Rain* | Wind** | Luminosity | Snow |
|---|---|---|---|---|---|---|---|
| 1777984893 | 15° C | 85% | 1014.5 hPa | 0 mm | 0 m/s | - | - |
| 1777984231 | 15° C | 86% | 1014.2 hPa | 0 mm | 0 m/s | - | - |
| 1777983569 | 14.44° C | 90% | 1014.2 hPa | 0 mm | 0 m/s | - | - |
| 1777982906 | 13.33° C | 91% | 1014.2 hPa | 0 mm | 0 m/s | - | - |
| 1777982244 | 12.78° C | 92% | 1013.8 hPa | 0 mm | 0 m/s | - | - |
| 1777981581 | 11.67° C | 92% | 1013.8 hPa | 0 mm | 0.89 m/s, 161° | - | - |
| 1777980919 | 11.67° C | 94% | 1013.5 hPa | 0 mm | 0 m/s | - | - |
| 1777980257 | 10.56° C | 95% | 1013.5 hPa | 0 mm | 0.45 m/s, 128° | - | - |
| 1777979594 | 10.56° C | 96% | 1013.2 hPa | 0 mm | 0 m/s | - | - |
| 1777978932 | 10.56° C | 97% | 1013.2 hPa | 0 mm | 0 m/s | - | - |
| 1777978269 | 10° C | 95% | 1013.2 hPa | 0 mm | 0 m/s | - | - |
| 1777977607 | 10° C | 95% | 1012.8 hPa | 0 mm | 0 m/s | - | - |
| 1777976285 | 10.56° C | 95% | 1012.8 hPa | 0 mm | 0 m/s | - | - |
| 1777975622 | 10.56° C | 94% | 1013.2 hPa | 0 mm | 0 m/s | - | - |
| 1777974960 | 10.56° C | 93% | 1013.2 hPa | 0 mm | 0 m/s | - | - |
| 1777974297 | 10.56° C | 93% | 1013.2 hPa | 0 mm | 0 m/s | - | - |
| 1777973635 | 11.11° C | 92% | 1012.8 hPa | 0 mm | 0 m/s | - | - |
| 1777972972 | 11.67° C | 91% | 1012.8 hPa | 0 mm | 0 m/s | - | - |
| 1777972310 | 11.67° C | 89% | 1012.8 hPa | 0 mm | 0 m/s | - | - |
| 1777971648 | 11.67° C | 89% | 1012.8 hPa | 0 mm | 0 m/s | - | - |
| 1777970985 | 11.67° C | 89% | 1012.8 hPa | 0 mm | 0 m/s | - | - |
| 1777970323 | 12.22° C | 87% | 1012.8 hPa | 0 mm | 0 m/s | - | - |
| 1777969661 | 12.22° C | 86% | 1013.2 hPa | 0 mm | 0 m/s | - | - |
| 1777968999 | 12.22° C | 86% | 1013.2 hPa | 0 mm | 0 m/s | - | - |
| 1777968336 | 12.22° C | 86% | 1013.2 hPa | 0 mm | 0 m/s | - | - |
* Rain latest hour (hover to see other rain measurements)
** Current wind speed in m/s (hover to see current wind gust speed)